LFBZ/BIQ METAR and TAF weather

Enter ICAO airport designator
Station Type Date Time Source
LFBZ METAR 2020/01/20 18:30 UTC NOAA

LFBZ 201830Z AUTO 06008KT 9999 BKN060 06/M01 Q1034 NOSIG


Station Type Date Time Source
LFBZ Decoded METAR 2020/01/20 18:30 UTC NOAA

Biarritz, France (LFBZ) 43-28N 001-32W 71M
Jan 20, 2020 - 01:30 PM EST / 2020.01.20 1830 UTC
Wind: from the ENE (060 degrees) at 9 MPH (8 KT):0
Visibility: greater than 7 mile(s):0
Sky conditions: mostly cloudy
Temperature: 42 F (6 C)
Dew Point: 30 F (-1 C)
Relative Humidity: 60%
Pressure (altimeter): 30.53 in. Hg (1034 hPa)
ob: LFBZ 201830Z AUTO 06008KT 9999 BKN060 06/M01 Q1034 NOSIG
cycle: 18

Station Type Date Time Source
LFBZ TAF 2020/01/20 18:21 UTC NOAA

TAF LFBZ 201700Z 2018/2118 07010KT 9999 SCT030
BECMG 2106/2108 BKN012
BECMG 2115/2117 VRB03KT

Example: see airport list